This is the latest recevied weather packets stored in our database for station/object SV9TNF-1. If no packets are shown the sender has not sent any weather packets the latest 10 day(s).
| Time | Temp. | Humidity | Pressure | Rain* | Wind** | Luminosity | Snow |
|---|---|---|---|---|---|---|---|
| 1778165161 | 21.67° C | 58% | 1006.1 hPa | 0 mm | 8.49 m/s, 350° | - | - |
| 1778164861 | 22.78° C | 56% | 1006.1 hPa | 0 mm | 3.58 m/s, 24° | - | - |
| 1778164560 | 22.22° C | 56% | 1006.1 hPa | 0 mm | 0.89 m/s, 129° | - | - |
| 1778164260 | 22.22° C | 55% | 1006.1 hPa | 0 mm | 3.13 m/s, 136° | - | - |
| 1778163960 | 23.33° C | 53% | 1006.1 hPa | 0 mm | 1.79 m/s, 125° | - | - |
| 1778163660 | 22.78° C | 52% | 1006.1 hPa | 0 mm | 3.58 m/s, 171° | - | - |
| 1778163360 | 22.78° C | 46% | 1006.1 hPa | 0 mm | 2.68 m/s, 171° | - | - |
| 1778163060 | 23.33° C | 49% | 1006.1 hPa | 0 mm | 3.13 m/s, 173° | - | - |
| 1778162760 | 23.33° C | 47% | 1006.1 hPa | 0 mm | 3.13 m/s, 119° | - | - |
| 1778162459 | 23.33° C | 53% | 1006.1 hPa | 0 mm | 4.47 m/s, 136° | - | - |
| 1778162159 | 23.33° C | 52% | 1006.4 hPa | 0 mm | 4.92 m/s, 225° | - | - |
| 1778161859 | 23.33° C | 44% | 1006.4 hPa | 0 mm | 3.13 m/s, 151° | - | - |
| 1778161559 | 23.33° C | 53% | 1006.4 hPa | 0 mm | 4.02 m/s, 178° | - | - |
| 1778161259 | 24.44° C | 50% | 1006.4 hPa | 0 mm | 0 m/s | - | - |
| 1778160959 | 24.44° C | 50% | 1006.4 hPa | 0 mm | 0 m/s | - | - |
| 1778160659 | 24.44° C | 48% | 1006.4 hPa | 0 mm | 1.79 m/s, 131° | - | - |
| 1778160359 | 24.44° C | 52% | 1006.4 hPa | 0 mm | 1.34 m/s, 128° | - | - |
| 1778160059 | 23.89° C | 53% | 1006.4 hPa | 0 mm | 0.89 m/s, 133° | - | - |
| 1778159758 | 23.89° C | 52% | 1006.4 hPa | 0 mm | 1.79 m/s, 45° | - | - |
| 1778159458 | 24.44° C | 48% | 1006.8 hPa | 0 mm | 7.15 m/s, 131° | - | - |
| 1778159158 | 25° C | 49% | 1006.8 hPa | 0 mm | 3.58 m/s, 127° | - | - |
| 1778158858 | 24.44° C | 48% | 1006.8 hPa | 0 mm | 2.68 m/s, 78° | - | - |
| 1778158558 | 25° C | 47% | 1006.4 hPa | 0 mm | 8.05 m/s, 326° | - | - |
| 1778158258 | 25° C | 43% | 1006.4 hPa | 0 mm | 8.05 m/s, 353° | - | - |
| 1778157958 | 25.56° C | 39% | 1006.8 hPa | 0 mm | 1.34 m/s, 19° | - | - |
* Rain latest hour (hover to see other rain measurements)
** Current wind speed in m/s (hover to see current wind gust speed)